createdAt,value
2022-10-11T00:00:21.419Z,24.63
2022-10-11T00:02:48.795Z,27.98
2022-10-11T00:05:16.250Z,23.70
2022-10-11T00:07:43.658Z,27.40
2022-10-11T00:10:11.237Z,29.50
2022-10-11T00:12:38.772Z,26.38
2022-10-11T00:15:07.296Z,25.55
2022-10-11T00:17:35.710Z,30.00
2022-10-11T00:20:03.104Z,27.52
2022-10-11T00:22:30.419Z,25.35
2022-10-11T00:24:59.055Z,27.85
2022-10-11T00:27:26.438Z,27.75
2022-10-11T00:29:54.044Z,31.30
2022-10-11T00:32:21.439Z,25.60
2022-10-11T00:34:48.957Z,29.27
2022-10-11T00:37:16.446Z,27.20
2022-10-11T00:39:43.821Z,25.20
2022-10-11T00:42:16.708Z,24.48
2022-10-11T00:44:47.006Z,29.20
2022-10-11T00:47:24.857Z,21.40
2022-10-11T00:49:59.574Z,18.83
2022-10-11T00:52:41.141Z,19.88
2022-10-11T00:55:19.048Z,22.48
2022-10-11T00:57:49.963Z,19.42
2022-10-11T01:00:17.300Z,20.00
2022-10-11T01:02:44.834Z,25.45
2022-10-11T01:05:32.455Z,19.00
2022-10-11T01:08:01.012Z,22.85
2022-10-11T01:10:29.220Z,18.15
2022-10-11T01:13:00.557Z,18.33
2022-10-11T01:16:00.034Z,25.38
2022-10-11T01:19:00.037Z,25.58
2022-10-11T01:21:49.004Z,24.88
2022-10-11T01:24:26.455Z,26.42
2022-10-11T01:27:11.817Z,27.00
2022-10-11T01:29:57.506Z,24.40
2022-10-11T01:32:34.304Z,21.90
2022-10-11T01:35:17.532Z,24.65
2022-10-11T01:37:51.402Z,28.55
2022-10-11T01:40:42.649Z,21.20
2022-10-11T01:43:10.713Z,24.90
2022-10-11T01:45:39.357Z,20.63
2022-10-11T01:48:12.941Z,20.40
2022-10-11T01:50:48.051Z,23.45
2022-10-11T01:53:48.625Z,24.20
2022-10-11T01:56:35.299Z,27.45
2022-10-11T01:59:31.929Z,23.40
2022-10-11T02:02:22.621Z,17.42
2022-10-11T02:05:03.047Z,20.58
2022-10-11T02:07:50.570Z,23.95
2022-10-11T02:10:25.010Z,27.15
2022-10-11T02:13:02.789Z,22.23
2022-10-11T02:15:32.523Z,20.67
2022-10-11T02:18:03.108Z,21.50
2022-10-11T02:20:34.652Z,26.20
2022-10-11T02:23:13.926Z,19.58
2022-10-11T02:25:43.190Z,19.77
2022-10-11T02:28:17.215Z,18.92
2022-10-11T02:30:47.531Z,13.10
2022-10-11T02:33:18.795Z,11.82
2022-10-11T02:35:54.756Z,11.05
2022-10-11T02:38:31.147Z,19.27
2022-10-11T02:41:12.802Z,10.55
2022-10-11T02:43:47.231Z,13.98
2022-10-11T02:46:17.584Z,8.55
2022-10-11T02:48:45.059Z,8.02
2022-10-11T02:51:14.556Z,10.02
2022-10-11T02:53:41.837Z,12.45
2022-10-11T02:56:09.191Z,9.23
2022-10-11T02:58:36.518Z,9.70
2022-10-11T03:01:04.069Z,9.60
2022-10-11T03:03:31.438Z,10.05
2022-10-11T03:06:03.958Z,8.65
2022-10-11T03:08:31.828Z,6.38
2022-10-11T03:10:59.156Z,9.05
2022-10-11T03:13:26.646Z,8.98
2022-10-11T03:16:02.684Z,7.18
2022-10-11T03:18:31.256Z,8.55
2022-10-11T03:20:58.675Z,8.27
2022-10-11T03:23:25.966Z,8.30
2022-10-11T03:25:53.364Z,7.03
2022-10-11T03:28:21.116Z,8.90
2022-10-11T03:30:49.716Z,7.25
2022-10-11T03:33:17.719Z,7.72
2022-10-11T03:35:46.214Z,7.50
2022-10-11T03:38:15.161Z,6.47
2022-10-11T03:40:43.682Z,8.27
2022-10-11T03:43:11.921Z,6.63
2022-10-11T03:45:39.715Z,5.80
2022-10-11T03:48:07.176Z,6.32
2022-10-11T03:50:34.749Z,8.77
2022-10-11T03:53:02.236Z,6.82
2022-10-11T03:55:29.532Z,8.77
2022-10-11T03:57:56.950Z,6.20
2022-10-11T04:00:24.376Z,5.78
2022-10-11T04:02:51.693Z,8.95
2022-10-11T04:05:19.081Z,6.70
2022-10-11T04:07:46.318Z,11.27
2022-10-11T04:10:14.823Z,7.03
2022-10-11T04:12:42.233Z,5.40
2022-10-11T04:15:14.802Z,9.75
2022-10-11T04:17:42.390Z,6.72
2022-10-11T04:20:10.165Z,7.78
2022-10-11T04:22:41.536Z,6.82
2022-10-11T04:25:09.655Z,6.75
2022-10-11T04:27:37.014Z,6.00
2022-10-11T04:30:04.786Z,8.43
2022-10-11T04:32:32.164Z,4.68
2022-10-11T04:34:59.447Z,5.68
2022-10-11T04:37:26.770Z,7.15
2022-10-11T04:39:54.057Z,8.95
2022-10-11T04:42:21.547Z,8.73
2022-10-11T04:44:48.921Z,7.20
2022-10-11T04:47:16.107Z,8.45
2022-10-11T04:49:43.470Z,6.88
2022-10-11T04:52:10.713Z,6.25
2022-10-11T04:54:38.139Z,6.25
2022-10-11T04:57:05.901Z,10.15
2022-10-11T04:59:33.296Z,8.98
2022-10-11T05:02:00.686Z,10.70
2022-10-11T05:04:28.459Z,10.48
2022-10-11T05:06:55.826Z,9.50
2022-10-11T05:09:23.457Z,10.13
2022-10-11T05:11:50.839Z,10.55
2022-10-11T05:14:18.239Z,7.85
2022-10-11T05:16:45.516Z,7.82
2022-10-11T05:19:12.960Z,10.20
2022-10-11T05:21:40.395Z,8.88
2022-10-11T05:24:08.283Z,12.25
2022-10-11T05:26:35.888Z,12.35
2022-10-11T05:29:03.871Z,12.02
2022-10-11T05:31:31.332Z,10.65
2022-10-11T05:33:58.661Z,12.50
2022-10-11T05:36:26.316Z,12.02
2022-10-11T05:38:53.588Z,14.90
2022-10-11T05:41:20.952Z,16.05
2022-10-11T05:43:48.416Z,16.52
2022-10-11T05:46:15.836Z,12.75
2022-10-11T05:48:43.166Z,20.23
2022-10-11T05:51:12.683Z,16.15
2022-10-11T05:53:40.196Z,17.30
2022-10-11T05:56:19.809Z,16.83
2022-10-11T05:58:47.517Z,19.80
2022-10-11T06:01:32.748Z,18.45
2022-10-11T06:04:00.387Z,18.05
2022-10-11T06:06:27.801Z,19.92
2022-10-11T06:08:55.578Z,23.95
2022-10-11T06:11:26.251Z,23.65
2022-10-11T06:13:55.445Z,20.95
2022-10-11T06:16:22.856Z,21.48
2022-10-11T06:18:53.788Z,24.33
2022-10-11T06:21:23.564Z,22.88
2022-10-11T06:23:54.569Z,16.00
2022-10-11T06:26:24.561Z,17.33
2022-10-11T06:28:52.001Z,19.00
2022-10-11T06:31:19.666Z,15.18
2022-10-11T06:33:46.968Z,15.30
2022-10-11T06:36:15.183Z,16.52
2022-10-11T06:38:45.256Z,20.20
2022-10-11T06:41:25.402Z,15.32
2022-10-11T06:43:53.007Z,11.98
2022-10-11T06:46:21.725Z,14.20
2022-10-11T06:48:49.479Z,16.95
2022-10-11T06:51:21.405Z,12.55
2022-10-11T06:53:53.681Z,17.23
2022-10-11T06:56:21.602Z,21.27
2022-10-11T06:58:48.996Z,15.85
2022-10-11T07:01:20.291Z,17.92
2022-10-11T07:03:48.870Z,20.98
2022-10-11T07:06:18.972Z,12.50
2022-10-11T07:08:47.202Z,18.77
2022-10-11T07:11:20.895Z,18.73
2022-10-11T07:13:53.877Z,16.17
2022-10-11T07:16:22.210Z,18.85
2022-10-11T07:18:59.543Z,16.05
2022-10-11T07:21:29.365Z,16.13
2022-10-11T07:23:56.865Z,19.05
2022-10-11T07:26:24.178Z,14.05
2022-10-11T07:28:51.998Z,16.52
2022-10-11T07:31:22.742Z,7.70
2022-10-11T07:33:50.386Z,7.63
2022-10-11T07:36:17.932Z,7.38
2022-10-11T07:38:47.275Z,11.15
2022-10-11T07:41:14.891Z,11.00
2022-10-11T07:43:43.780Z,8.40
2022-10-11T07:46:11.580Z,7.95
2022-10-11T07:48:40.375Z,11.73
2022-10-11T07:51:15.524Z,11.52
2022-10-11T07:53:45.450Z,10.23
2022-10-11T07:56:16.030Z,8.45
2022-10-11T07:58:43.908Z,11.55
2022-10-11T08:01:12.176Z,6.88
2022-10-11T08:03:39.698Z,7.05
2022-10-11T08:06:09.996Z,10.55
2022-10-11T08:08:38.263Z,6.13
2022-10-11T08:11:06.488Z,8.75
2022-10-11T08:13:34.542Z,7.45
2022-10-11T08:16:09.953Z,5.00
2022-10-11T08:18:37.290Z,6.50
2022-10-11T08:21:12.333Z,9.32
2022-10-11T08:23:40.194Z,9.00
2022-10-11T08:26:08.547Z,8.82
2022-10-11T08:28:36.570Z,8.50
2022-10-11T08:31:04.482Z,7.13
2022-10-11T08:33:31.893Z,8.93
2022-10-11T08:35:59.215Z,6.68
2022-10-11T08:38:26.503Z,9.93
2022-10-11T08:40:56.616Z,7.00
2022-10-11T08:43:45.383Z,5.28
2022-10-11T08:46:15.477Z,7.95
2022-10-11T08:48:50.432Z,9.00
2022-10-11T08:51:26.603Z,9.50
2022-10-11T08:54:12.722Z,8.85
2022-10-11T08:56:43.431Z,5.40
2022-10-11T08:59:13.779Z,8.43
2022-10-11T09:01:50.409Z,10.63
2022-10-11T09:04:18.592Z,6.38
2022-10-11T09:07:01.300Z,6.70
2022-10-11T09:10:08.108Z,8.60
2022-10-11T09:12:50.343Z,7.18
2022-10-11T09:15:26.721Z,4.78
2022-10-11T09:18:02.549Z,6.80
2022-10-11T09:20:59.568Z,5.35
2022-10-11T09:23:59.932Z,5.43
2022-10-11T09:26:43.823Z,5.28
2022-10-11T09:29:50.739Z,5.43
2022-10-11T09:32:23.148Z,4.97
2022-10-11T09:35:02.563Z,9.13
2022-10-11T09:37:42.545Z,11.00
2022-10-11T09:40:38.910Z,4.80
2022-10-11T09:43:06.337Z,5.90
2022-10-11T09:45:33.640Z,6.45
2022-10-11T09:48:03.202Z,9.50
2022-10-11T09:50:32.061Z,6.93
2022-10-11T09:53:03.643Z,6.70
2022-10-11T09:55:33.685Z,10.10
2022-10-11T09:58:05.058Z,14.20
2022-10-11T10:00:34.274Z,6.82
2022-10-11T10:03:04.113Z,7.05
2022-10-11T10:05:34.233Z,10.43
2022-10-11T10:08:23.676Z,8.65
2022-10-11T10:10:59.390Z,13.30
2022-10-11T10:13:43.648Z,8.68
2022-10-11T10:16:23.156Z,11.65
2022-10-11T10:18:54.781Z,13.25
2022-10-11T10:21:45.188Z,13.88
2022-10-11T10:24:40.518Z,11.05
2022-10-11T10:27:18.405Z,7.93
2022-10-11T10:30:09.303Z,15.98
2022-10-11T10:32:48.532Z,7.95
2022-10-11T10:35:35.082Z,8.57
2022-10-11T10:38:30.671Z,10.60
2022-10-11T10:41:01.856Z,13.20
2022-10-11T10:43:38.141Z,9.07
2022-10-11T10:46:29.588Z,6.00
2022-10-11T10:49:54.686Z,6.38
2022-10-11T10:52:28.540Z,6.25
2022-10-11T10:55:20.028Z,8.48
2022-10-11T10:58:12.899Z,8.07
2022-10-11T11:01:10.878Z,8.18
2022-10-11T11:03:46.917Z,6.75
2022-10-11T11:06:37.339Z,4.60
2022-10-11T11:09:14.109Z,6.15
2022-10-11T11:11:50.452Z,12.82
2022-10-11T11:14:44.279Z,9.38
2022-10-11T11:17:24.431Z,6.93
2022-10-11T11:20:03.388Z,6.75
2022-10-11T11:23:09.341Z,7.70
2022-10-11T11:26:01.453Z,7.13
2022-10-11T11:29:11.653Z,8.13
2022-10-11T11:31:59.549Z,9.07
2022-10-11T11:34:38.630Z,8.05
2022-10-11T11:37:22.253Z,7.53
2022-10-11T11:39:52.657Z,10.68
2022-10-11T11:42:26.569Z,10.02
2022-10-11T11:44:54.145Z,9.85
2022-10-11T11:47:26.981Z,9.80
2022-10-11T11:49:58.886Z,7.32
2022-10-11T11:52:32.138Z,12.75
2022-10-11T11:55:10.934Z,10.88
2022-10-11T11:58:13.393Z,11.02
2022-10-11T12:00:52.385Z,10.27
2022-10-11T12:03:26.473Z,14.65
2022-10-11T12:06:12.728Z,10.32
2022-10-11T12:08:42.936Z,11.55
2022-10-11T12:11:21.357Z,11.25
2022-10-11T12:13:51.270Z,13.45
2022-10-11T12:16:19.730Z,13.27
2022-10-11T12:19:02.370Z,17.90
2022-10-11T12:21:43.652Z,9.82
2022-10-11T12:24:51.569Z,13.13
2022-10-11T12:27:41.325Z,12.13
2022-10-11T12:30:54.780Z,14.55
2022-10-11T12:33:33.316Z,22.10
2022-10-11T12:36:22.126Z,15.30
2022-10-11T12:39:21.511Z,14.40
2022-10-11T12:41:51.795Z,16.65
2022-10-11T12:44:19.023Z,19.65
2022-10-11T12:46:55.234Z,16.02
2022-10-11T12:49:44.408Z,17.73
2022-10-11T12:52:17.960Z,20.42
2022-10-11T12:55:03.740Z,16.48
2022-10-11T12:57:49.591Z,18.50
2022-10-11T13:00:29.930Z,19.08
2022-10-11T13:03:01.715Z,14.05
2022-10-11T13:05:52.371Z,15.68
2022-10-11T13:08:33.957Z,18.88
2022-10-11T13:11:12.242Z,15.35
2022-10-11T13:13:44.370Z,25.85
2022-10-11T13:16:18.507Z,16.48
2022-10-11T13:18:49.268Z,21.70
2022-10-11T13:21:32.121Z,20.95
2022-10-11T13:24:02.936Z,19.23
2022-10-11T13:26:31.818Z,20.08
2022-10-11T13:29:00.829Z,22.23
2022-10-11T13:31:28.441Z,23.33
2022-10-11T13:33:59.349Z,17.85
2022-10-11T13:36:27.787Z,18.85
2022-10-11T13:38:58.549Z,19.00
2022-10-11T13:41:28.362Z,13.43
2022-10-11T13:43:57.660Z,16.63
2022-10-11T13:46:28.187Z,17.33
2022-10-11T13:49:37.236Z,12.40
2022-10-11T13:52:28.398Z,13.25
2022-10-11T13:55:08.034Z,19.60
2022-10-11T13:57:38.242Z,18.67
2022-10-11T14:00:10.901Z,15.55
2022-10-11T14:02:39.346Z,16.38
2022-10-11T14:05:07.007Z,15.05
2022-10-11T14:07:39.133Z,18.45
2022-10-11T14:10:07.670Z,19.25
2022-10-11T14:12:44.574Z,20.08
2022-10-11T14:15:38.417Z,16.83
2022-10-11T14:18:37.565Z,19.83
2022-10-11T14:21:20.179Z,16.13
2022-10-11T14:23:51.753Z,23.85
2022-10-11T14:26:20.606Z,17.23
2022-10-11T14:28:59.779Z,13.00
2022-10-11T14:31:30.462Z,12.60
2022-10-11T14:33:58.631Z,13.95
2022-10-11T14:36:26.326Z,14.38
2022-10-11T14:38:54.281Z,12.10
2022-10-11T14:41:22.019Z,13.48
2022-10-11T14:43:49.833Z,14.60
2022-10-11T14:46:27.630Z,11.43
2022-10-11T14:48:56.584Z,13.32
2022-10-11T14:51:31.561Z,16.77
2022-10-11T14:53:59.095Z,14.82
2022-10-11T14:56:26.371Z,13.88
2022-10-11T14:58:53.712Z,15.52
2022-10-11T15:01:21.229Z,14.82
2022-10-11T15:03:48.809Z,18.45
2022-10-11T15:06:30.366Z,17.58
2022-10-11T15:08:57.919Z,19.13
2022-10-11T15:11:26.767Z,17.50
2022-10-11T15:13:54.272Z,14.02
2022-10-11T15:16:22.433Z,13.68
2022-10-11T15:18:52.889Z,18.23
2022-10-11T15:21:22.613Z,20.38
2022-10-11T15:23:51.020Z,17.58
2022-10-11T15:26:24.192Z,11.73
2022-10-11T15:28:53.574Z,12.50
2022-10-11T15:31:21.757Z,11.70
2022-10-11T15:33:49.818Z,13.50
2022-10-11T15:36:22.550Z,14.30
2022-10-11T15:38:50.185Z,10.82
2022-10-11T15:41:19.154Z,9.23
2022-10-11T15:43:48.545Z,12.95
2022-10-11T15:46:22.351Z,15.07
2022-10-11T15:48:51.350Z,12.45
2022-10-11T15:51:19.434Z,12.30
2022-10-11T15:53:47.448Z,11.55
2022-10-11T15:56:18.896Z,19.55
2022-10-11T15:58:46.755Z,10.38
2022-10-11T16:01:17.728Z,16.50
2022-10-11T16:03:49.032Z,13.23
2022-10-11T16:06:17.548Z,11.95
2022-10-11T16:08:45.226Z,7.65
2022-10-11T16:11:13.501Z,7.68
2022-10-11T16:13:41.138Z,8.48
2022-10-11T16:16:09.942Z,9.05
2022-10-11T16:18:37.840Z,9.40
2022-10-11T16:21:11.322Z,10.32
2022-10-11T16:23:39.248Z,7.40
2022-10-11T16:26:10.017Z,9.65
2022-10-11T16:28:38.102Z,10.82
2022-10-11T16:31:10.501Z,7.65
2022-10-11T16:33:46.270Z,7.32
2022-10-11T16:36:51.770Z,13.32
2022-10-11T16:39:20.088Z,9.68
2022-10-11T16:41:47.931Z,10.18
2022-10-11T16:44:17.027Z,14.30
2022-10-11T16:46:48.774Z,10.25
2022-10-11T16:49:18.091Z,9.95
2022-10-11T16:51:45.618Z,12.95
2022-10-11T16:54:16.601Z,12.82
2022-10-11T16:56:47.014Z,9.13
2022-10-11T16:59:14.367Z,11.52
2022-10-11T17:01:42.080Z,11.23
2022-10-11T17:04:09.999Z,9.25
2022-10-11T17:06:38.008Z,10.80
2022-10-11T17:09:05.498Z,12.25
2022-10-11T17:11:33.302Z,12.30
2022-10-11T17:14:02.042Z,10.48
2022-10-11T17:16:29.800Z,12.50
2022-10-11T17:18:57.168Z,11.55
2022-10-11T17:21:24.720Z,15.68
2022-10-11T17:23:52.241Z,14.93
2022-10-11T17:26:25.090Z,11.88
2022-10-11T17:28:54.953Z,13.07
2022-10-11T17:31:23.117Z,13.07
2022-10-11T17:33:51.199Z,18.15
2022-10-11T17:36:24.905Z,15.00
2022-10-11T17:38:56.139Z,16.92
2022-10-11T17:41:29.468Z,18.80
2022-10-11T17:43:59.701Z,13.45
2022-10-11T17:46:28.424Z,13.35
2022-10-11T17:48:55.976Z,12.85
2022-10-11T17:51:23.542Z,17.65
2022-10-11T17:53:51.758Z,16.55
2022-10-11T17:56:26.741Z,18.65
2022-10-11T17:58:57.430Z,20.20
2022-10-11T18:01:28.324Z,17.85
2022-10-11T18:04:04.974Z,17.70
2022-10-11T18:06:38.374Z,19.30
2022-10-11T18:09:06.281Z,20.02
2022-10-11T18:11:33.692Z,21.85
2022-10-11T18:14:01.963Z,19.67
2022-10-11T18:16:30.725Z,22.55
2022-10-11T18:18:58.985Z,20.75
2022-10-11T18:21:33.632Z,23.88
2022-10-11T18:24:08.178Z,20.42
2022-10-11T18:26:35.666Z,19.70
2022-10-11T18:29:04.093Z,22.33
2022-10-11T18:31:34.508Z,19.63
2022-10-11T18:34:03.369Z,18.83
2022-10-11T18:36:32.198Z,18.73
2022-10-11T18:39:03.170Z,19.38
2022-10-11T18:41:32.375Z,17.33
2022-10-11T18:44:02.648Z,18.05
2022-10-11T18:46:30.863Z,16.52
2022-10-11T18:48:59.884Z,17.63
2022-10-11T18:51:33.839Z,16.17
2022-10-11T18:54:01.765Z,16.35
2022-10-11T18:56:30.716Z,15.77
2022-10-11T18:58:59.402Z,17.25
2022-10-11T19:01:30.321Z,17.00
2022-10-11T19:04:00.108Z,18.00
2022-10-11T19:06:49.304Z,17.35
2022-10-11T19:09:22.686Z,18.58
2022-10-11T19:11:51.446Z,17.48
2022-10-11T19:14:21.017Z,20.00
2022-10-11T19:16:51.807Z,20.88
2022-10-11T19:19:37.319Z,19.52
2022-10-11T19:22:05.091Z,21.30
2022-10-11T19:24:32.847Z,16.40
2022-10-11T19:27:02.796Z,16.25
2022-10-11T19:29:31.306Z,17.00
2022-10-11T19:32:01.117Z,16.48
2022-10-11T19:34:29.078Z,16.27
2022-10-11T19:36:57.290Z,18.20
2022-10-11T19:39:25.038Z,17.40
2022-10-11T19:41:52.937Z,16.35
2022-10-11T19:44:20.477Z,17.63
2022-10-11T19:46:52.353Z,16.27
2022-10-11T19:49:24.287Z,15.00
2022-10-11T19:51:52.199Z,13.52
2022-10-11T19:54:20.076Z,13.70
2022-10-11T19:56:48.082Z,14.10
2022-10-11T19:59:16.059Z,14.23
2022-10-11T20:01:47.917Z,16.17
2022-10-11T20:04:39.508Z,17.02
2022-10-11T20:07:06.073Z,16.80
2022-10-11T20:09:33.578Z,16.50
2022-10-11T20:12:01.070Z,17.20
2022-10-11T20:14:28.520Z,17.52
2022-10-11T20:16:55.793Z,18.13
2022-10-11T20:19:29.333Z,18.42
2022-10-11T20:21:58.193Z,18.23
2022-10-11T20:24:27.660Z,17.35
2022-10-11T20:26:55.811Z,18.20
2022-10-11T20:29:26.726Z,16.92
2022-10-11T20:31:54.191Z,14.80
2022-10-11T20:34:21.516Z,15.30
2022-10-11T20:36:49.478Z,13.68
2022-10-11T20:39:17.271Z,12.93
2022-10-11T20:41:44.617Z,12.75
2022-10-11T20:44:13.400Z,12.63
2022-10-11T20:46:40.804Z,11.80
2022-10-11T20:49:11.508Z,11.60
2022-10-11T20:51:40.385Z,11.88
2022-10-11T20:54:08.098Z,13.15
2022-10-11T20:56:35.932Z,12.45
2022-10-11T20:59:03.568Z,14.68
2022-10-11T21:01:37.238Z,13.60
2022-10-11T21:04:05.136Z,13.23
2022-10-11T21:06:34.305Z,12.90
2022-10-11T21:09:01.901Z,13.05
2022-10-11T21:11:31.603Z,12.85
2022-10-11T21:14:00.621Z,12.15
2022-10-11T21:16:28.701Z,11.70
2022-10-11T21:18:58.309Z,11.43
2022-10-11T21:21:26.680Z,10.95
2022-10-11T21:23:59.342Z,11.10
2022-10-11T21:26:27.738Z,11.30
2022-10-11T21:28:55.234Z,10.52
2022-10-11T21:31:23.910Z,12.02
2022-10-11T21:33:51.424Z,11.30
2022-10-11T21:36:24.996Z,10.60
2022-10-11T21:38:53.812Z,12.70
2022-10-11T21:41:23.988Z,11.27
2022-10-11T21:43:51.753Z,10.73
2022-10-11T21:46:47.551Z,10.27
2022-10-11T21:49:15.544Z,9.02
2022-10-11T21:51:43.017Z,10.07
2022-10-11T21:54:10.866Z,12.18
2022-10-11T21:56:38.198Z,8.82
2022-10-11T21:59:08.076Z,10.82
2022-10-11T22:01:38.627Z,10.43
2022-10-11T22:04:07.779Z,9.10
2022-10-11T22:06:36.009Z,11.07
2022-10-11T22:09:04.226Z,12.95
2022-10-11T22:11:31.926Z,23.33
2022-10-11T22:13:59.322Z,12.23
2022-10-11T22:16:26.660Z,10.60
2022-10-11T22:18:54.599Z,9.32
2022-10-11T22:21:23.726Z,8.15
2022-10-11T22:23:53.146Z,8.30
2022-10-11T22:26:26.253Z,7.97
2022-10-11T22:28:53.831Z,8.68
2022-10-11T22:31:23.436Z,7.43
2022-10-11T22:33:58.495Z,6.70
2022-10-11T22:36:26.857Z,8.38
2022-10-11T22:38:54.431Z,6.00
2022-10-11T22:41:22.051Z,7.32
2022-10-11T22:43:50.095Z,6.50
2022-10-11T22:46:17.661Z,6.85
2022-10-11T22:48:44.948Z,6.28
2022-10-11T22:51:12.440Z,6.65
2022-10-11T22:53:41.198Z,7.28
2022-10-11T22:56:09.174Z,6.40
2022-10-11T22:58:36.777Z,12.23
2022-10-11T23:01:09.131Z,5.95
2022-10-11T23:03:36.719Z,6.25
2022-10-11T23:06:04.378Z,5.75
2022-10-11T23:08:31.821Z,5.90
2022-10-11T23:11:04.447Z,7.05
2022-10-11T23:13:31.810Z,7.88
2022-10-11T23:15:59.161Z,6.10
2022-10-11T23:18:26.482Z,8.15
2022-10-11T23:20:53.823Z,6.35
2022-10-11T23:23:21.220Z,6.13
2022-10-11T23:25:48.486Z,5.57
2022-10-11T23:28:15.948Z,7.43
2022-10-11T23:30:43.280Z,6.82
2022-10-11T23:33:10.740Z,5.28
2022-10-11T23:35:38.035Z,6.65
2022-10-11T23:38:05.485Z,6.63
2022-10-11T23:40:33.783Z,6.53
2022-10-11T23:43:01.133Z,6.72
2022-10-11T23:45:28.664Z,6.97
2022-10-11T23:47:56.137Z,8.13
2022-10-11T23:50:25.026Z,5.60
2022-10-11T23:52:52.510Z,5.95
2022-10-11T23:55:19.857Z,6.15
2022-10-11T23:57:47.243Z,5.75
